Arcata, CA (95518)

6:36 AM PDT on July 28, 2016 (GMT -0700)
APRSWXNET | | Change Station

Elev 5 ft 40.86 °N, 124.09 °W | Updated 28 minutes ago

Overcast
Overcast
54 °F
Feels Like 54 °F
N
1
Wind Variable Wind from NW
Gusts 2.0 mph

Today
High -- | Low -- °F
--% Chance of Precip.
Yesterday
High -- | Low -- °F
Precip. -- in
Pressure 29.92 in
Visibility 1.2 miles
Clouds Overcast 200 ft
Dew Point 53 °F
Humidity 97%
Rainfall in
Snow Depth Not available.
6:09 AM 8:35 PM
Waning Crescent, 32% visible
SPECI KACV 281323Z AUTO 00000KT 1 1/4SM R32/2800V4000FT BR OVC002 12/12 A2992 RMK AO2 T01220117
Pressure 29.92 in
Visibility 1.2 miles
Clouds Overcast 200 ft
Dew Point 53 °F
Humidity 97%
Rainfall in
Snow Depth Not available.
6:09 AM 8:35 PM
Waning Crescent, 32% visible
SPECI KACV 281323Z AUTO 00000KT 1 1/4SM R32/2800V4000FT BR OVC002 12/12 A2992 RMK AO2 T01220117

10-Day Weather Forecast

Almanac

Astronomy

Jul. 28, 2016 Rise Set
Actual Time
Civil Twilight
Nautical Twilight
Astronomical Twilight
Moon
Length of Visible Light
Length of Day
Tomorrow will be .
, % of the Moon is Illuminated

Today's Extremes

State Highs State Lows

Community

WunderPhotos

Upload Photos

1,928,112 photos uploaded!

WunderBlog® & News

Nearby

Air Quality

  Air Quality AQ Index Pollutant
Not available.

Snow Depth

Station Depth Elevation

Earthquake Activity

City Distance Mag. Time & Date
Minimum magnitude displayed is 2.5.

Coastal Water Temperatures

Place Temperature

Stations

Nearby Weather Stations

Station Location Temp. Windchill Dew Point Humidity Wind Precip. Elev Updated Type
                   

Watches & Warnings

There are currently no watches in effect.